sensor_id;sensor_type;location;lat;lon;timestamp;temperature;humidity
2663;DHT22;49701;48.072;7.800;2023-08-06T00:01:31;17.20;99.90
2663;DHT22;49701;48.072;7.800;2023-08-06T00:03:56;17.10;99.90
2663;DHT22;49701;48.072;7.800;2023-08-06T00:06:22;17.10;99.90
2663;DHT22;49701;48.072;7.800;2023-08-06T00:08:47;17.10;99.90
2663;DHT22;49701;48.072;7.800;2023-08-06T00:11:13;17.00;99.90
2663;DHT22;49701;48.072;7.800;2023-08-06T00:13:38;16.90;99.90
2663;DHT22;49701;48.072;7.800;2023-08-06T00:16:08;16.90;99.90
2663;DHT22;49701;48.072;7.800;2023-08-06T00:18:34;16.80;99.90
2663;DHT22;49701;48.072;7.800;2023-08-06T00:20:59;16.70;99.90
2663;DHT22;49701;48.072;7.800;2023-08-06T00:23:25;16.60;99.90
2663;DHT22;49701;48.072;7.800;2023-08-06T00:25:50;16.60;99.90
2663;DHT22;49701;48.072;7.800;2023-08-06T00:28:16;16.60;99.90
2663;DHT22;49701;48.072;7.800;2023-08-06T00:30:41;16.60;99.90
2663;DHT22;49701;48.072;7.800;2023-08-06T00:33:07;16.60;99.90
2663;DHT22;49701;48.072;7.800;2023-08-06T00:35:32;16.50;99.90
2663;DHT22;49701;48.072;7.800;2023-08-06T00:37:58;16.50;99.90
2663;DHT22;49701;48.072;7.800;2023-08-06T00:40:23;16.50;99.90
2663;DHT22;49701;48.072;7.800;2023-08-06T00:42:49;16.50;99.90
2663;DHT22;49701;48.072;7.800;2023-08-06T00:45:14;16.40;99.90
2663;DHT22;49701;48.072;7.800;2023-08-06T00:47:40;16.40;99.90
2663;DHT22;49701;48.072;7.800;2023-08-06T00:50:07;16.40;99.90
2663;DHT22;49701;48.072;7.800;2023-08-06T00:52:33;16.30;99.90
2663;DHT22;49701;48.072;7.800;2023-08-06T00:54:58;16.30;99.90
2663;DHT22;49701;48.072;7.800;2023-08-06T00:57:24;16.30;99.90
2663;DHT22;49701;48.072;7.800;2023-08-06T00:59:51;16.30;99.90
2663;DHT22;49701;48.072;7.800;2023-08-06T01:02:17;16.30;99.90
2663;DHT22;49701;48.072;7.800;2023-08-06T01:04:42;16.30;99.90
2663;DHT22;49701;48.072;7.800;2023-08-06T01:12:25;16.40;99.90
2663;DHT22;49701;48.072;7.800;2023-08-06T01:17:28;16.50;99.90
2663;DHT22;49701;48.072;7.800;2023-08-06T01:19:55;16.50;99.90
2663;DHT22;49701;48.072;7.800;2023-08-06T01:22:20;16.60;99.90
2663;DHT22;49701;48.072;7.800;2023-08-06T01:24:46;16.60;99.90
2663;DHT22;49701;48.072;7.800;2023-08-06T01:27:24;16.60;99.90
2663;DHT22;49701;48.072;7.800;2023-08-06T01:29:55;16.60;99.90
2663;DHT22;49701;48.072;7.800;2023-08-06T01:32:22;16.60;99.90
2663;DHT22;49701;48.072;7.800;2023-08-06T01:34:48;16.60;99.90
2663;DHT22;49701;48.072;7.800;2023-08-06T01:37:14;16.60;99.90
2663;DHT22;49701;48.072;7.800;2023-08-06T01:39:40;16.60;99.90
2663;DHT22;49701;48.072;7.800;2023-08-06T01:42:07;16.60;99.90
2663;DHT22;49701;48.072;7.800;2023-08-06T01:44:33;16.60;99.90
2663;DHT22;49701;48.072;7.800;2023-08-06T01:46:59;16.50;99.90
2663;DHT22;49701;48.072;7.800;2023-08-06T01:49:25;16.50;99.90
2663;DHT22;49701;48.072;7.800;2023-08-06T01:51:50;16.50;99.90
2663;DHT22;49701;48.072;7.800;2023-08-06T01:54:16;16.50;99.90
2663;DHT22;49701;48.072;7.800;2023-08-06T01:56:41;16.50;99.90
2663;DHT22;49701;48.072;7.800;2023-08-06T01:59:07;16.40;99.90
2663;DHT22;49701;48.072;7.800;2023-08-06T02:01:33;16.40;99.90
2663;DHT22;49701;48.072;7.800;2023-08-06T02:03:58;16.40;99.90
2663;DHT22;49701;48.072;7.800;2023-08-06T02:06:24;16.40;99.90
2663;DHT22;49701;48.072;7.800;2023-08-06T02:08:49;16.30;99.90
2663;DHT22;49701;48.072;7.800;2023-08-06T02:11:15;16.20;99.90
2663;DHT22;49701;48.072;7.800;2023-08-06T02:13:41;16.20;99.90
2663;DHT22;49701;48.072;7.800;2023-08-06T02:16:07;16.20;99.90
2663;DHT22;49701;48.072;7.800;2023-08-06T02:18:35;16.20;99.90
2663;DHT22;49701;48.072;7.800;2023-08-06T02:21:00;16.10;99.90
2663;DHT22;49701;48.072;7.800;2023-08-06T02:23:28;16.00;99.90
2663;DHT22;49701;48.072;7.800;2023-08-06T02:25:57;15.80;99.90
2663;DHT22;49701;48.072;7.800;2023-08-06T02:28:23;15.70;99.90
2663;DHT22;49701;48.072;7.800;2023-08-06T02:30:49;15.60;99.90
2663;DHT22;49701;48.072;7.800;2023-08-06T02:33:15;15.60;99.90
2663;DHT22;49701;48.072;7.800;2023-08-06T02:35:40;15.60;99.90
2663;DHT22;49701;48.072;7.800;2023-08-06T02:38:06;15.60;99.90
2663;DHT22;49701;48.072;7.800;2023-08-06T02:40:31;15.60;99.90
2663;DHT22;49701;48.072;7.800;2023-08-06T02:42:57;15.50;99.90
2663;DHT22;49701;48.072;7.800;2023-08-06T02:45:22;15.50;99.90
2663;DHT22;49701;48.072;7.800;2023-08-06T02:47:48;15.50;99.90
2663;DHT22;49701;48.072;7.800;2023-08-06T02:50:14;15.50;99.90
2663;DHT22;49701;48.072;7.800;2023-08-06T02:52:39;15.40;99.90
2663;DHT22;49701;48.072;7.800;2023-08-06T02:55:07;15.40;99.90
2663;DHT22;49701;48.072;7.800;2023-08-06T02:57:33;15.40;99.90
2663;DHT22;49701;48.072;7.800;2023-08-06T02:59:59;15.40;99.90
2663;DHT22;49701;48.072;7.800;2023-08-06T03:02:25;15.30;99.90
2663;DHT22;49701;48.072;7.800;2023-08-06T03:05:09;15.30;99.90
2663;DHT22;49701;48.072;7.800;2023-08-06T03:07:41;15.30;99.90
2663;DHT22;49701;48.072;7.800;2023-08-06T03:10:16;15.30;99.90
2663;DHT22;49701;48.072;7.800;2023-08-06T03:12:42;15.30;99.90
2663;DHT22;49701;48.072;7.800;2023-08-06T03:15:08;15.20;99.90
2663;DHT22;49701;48.072;7.800;2023-08-06T03:17:34;15.20;99.90
2663;DHT22;49701;48.072;7.800;2023-08-06T03:20:03;15.20;99.90
2663;DHT22;49701;48.072;7.800;2023-08-06T03:22:29;15.10;99.90
2663;DHT22;49701;48.072;7.800;2023-08-06T03:24:55;15.00;99.90
2663;DHT22;49701;48.072;7.800;2023-08-06T03:27:23;15.00;99.90
2663;DHT22;49701;48.072;7.800;2023-08-06T03:29:50;14.90;99.90
2663;DHT22;49701;48.072;7.800;2023-08-06T03:32:18;14.90;99.90
2663;DHT22;49701;48.072;7.800;2023-08-06T03:34:45;14.80;99.90
2663;DHT22;49701;48.072;7.800;2023-08-06T03:37:11;14.80;99.90
2663;DHT22;49701;48.072;7.800;2023-08-06T03:39:36;14.70;99.90
2663;DHT22;49701;48.072;7.800;2023-08-06T03:42:02;14.70;99.90
2663;DHT22;49701;48.072;7.800;2023-08-06T03:44:28;14.60;99.90
2663;DHT22;49701;48.072;7.800;2023-08-06T03:46:54;14.60;99.90
2663;DHT22;49701;48.072;7.800;2023-08-06T03:49:20;14.50;99.90
2663;DHT22;49701;48.072;7.800;2023-08-06T03:51:46;14.50;99.90
2663;DHT22;49701;48.072;7.800;2023-08-06T03:54:12;14.40;99.90
2663;DHT22;49701;48.072;7.800;2023-08-06T03:56:38;14.40;99.90
2663;DHT22;49701;48.072;7.800;2023-08-06T03:59:04;14.30;99.90
2663;DHT22;49701;48.072;7.800;2023-08-06T04:01:29;14.30;99.90
2663;DHT22;49701;48.072;7.800;2023-08-06T04:03:55;14.30;99.90
2663;DHT22;49701;48.072;7.800;2023-08-06T04:06:21;14.20;99.90
2663;DHT22;49701;48.072;7.800;2023-08-06T04:08:47;14.20;99.90
2663;DHT22;49701;48.072;7.800;2023-08-06T04:11:12;14.20;99.90
2663;DHT22;49701;48.072;7.800;2023-08-06T04:13:44;14.20;99.90
2663;DHT22;49701;48.072;7.800;2023-08-06T04:16:10;14.20;99.90
2663;DHT22;49701;48.072;7.800;2023-08-06T04:18:35;14.20;99.90
2663;DHT22;49701;48.072;7.800;2023-08-06T04:21:01;14.10;99.90
2663;DHT22;49701;48.072;7.800;2023-08-06T04:23:27;14.10;99.90
2663;DHT22;49701;48.072;7.800;2023-08-06T04:25:59;14.10;99.90
2663;DHT22;49701;48.072;7.800;2023-08-06T04:28:29;14.10;99.90
2663;DHT22;49701;48.072;7.800;2023-08-06T04:30:55;14.10;99.90
2663;DHT22;49701;48.072;7.800;2023-08-06T04:33:21;14.10;99.90
2663;DHT22;49701;48.072;7.800;2023-08-06T04:35:47;14.10;99.90
2663;DHT22;49701;48.072;7.800;2023-08-06T04:38:13;14.00;99.90
2663;DHT22;49701;48.072;7.800;2023-08-06T04:40:39;14.10;99.90
2663;DHT22;49701;48.072;7.800;2023-08-06T04:43:04;14.00;99.90
2663;DHT22;49701;48.072;7.800;2023-08-06T04:45:33;14.00;99.90
2663;DHT22;49701;48.072;7.800;2023-08-06T04:47:59;14.10;99.90
2663;DHT22;49701;48.072;7.800;2023-08-06T04:50:24;14.10;99.90
2663;DHT22;49701;48.072;7.800;2023-08-06T04:52:50;14.00;99.90
2663;DHT22;49701;48.072;7.800;2023-08-06T04:55:15;14.10;99.90
2663;DHT22;49701;48.072;7.800;2023-08-06T04:57:41;14.00;99.90
2663;DHT22;49701;48.072;7.800;2023-08-06T05:00:07;14.00;99.90
2663;DHT22;49701;48.072;7.800;2023-08-06T05:02:33;14.00;99.90
2663;DHT22;49701;48.072;7.800;2023-08-06T05:05:00;14.10;99.90
2663;DHT22;49701;48.072;7.800;2023-08-06T05:07:26;14.00;99.90
2663;DHT22;49701;48.072;7.800;2023-08-06T05:09:53;14.00;99.90
2663;DHT22;49701;48.072;7.800;2023-08-06T05:12:19;13.90;99.90
2663;DHT22;49701;48.072;7.800;2023-08-06T05:14:45;13.90;99.90
2663;DHT22;49701;48.072;7.800;2023-08-06T05:17:10;13.80;99.90
2663;DHT22;49701;48.072;7.800;2023-08-06T05:19:36;13.80;99.90
2663;DHT22;49701;48.072;7.800;2023-08-06T05:22:01;13.70;99.90
2663;DHT22;49701;48.072;7.800;2023-08-06T05:24:27;13.70;99.90
2663;DHT22;49701;48.072;7.800;2023-08-06T05:26:53;13.70;99.90
2663;DHT22;49701;48.072;7.800;2023-08-06T05:29:18;13.70;99.90
2663;DHT22;49701;48.072;7.800;2023-08-06T05:31:44;13.70;99.90
2663;DHT22;49701;48.072;7.800;2023-08-06T05:34:09;13.70;99.90
2663;DHT22;49701;48.072;7.800;2023-08-06T05:36:35;13.80;99.90
2663;DHT22;49701;48.072;7.800;2023-08-06T05:39:00;13.80;99.90
2663;DHT22;49701;48.072;7.800;2023-08-06T05:41:26;13.80;99.90
2663;DHT22;49701;48.072;7.800;2023-08-06T05:43:52;13.80;99.90
2663;DHT22;49701;48.072;7.800;2023-08-06T05:46:17;13.90;99.90
2663;DHT22;49701;48.072;7.800;2023-08-06T05:48:43;13.80;99.90
2663;DHT22;49701;48.072;7.800;2023-08-06T05:51:08;13.80;99.90
2663;DHT22;49701;48.072;7.800;2023-08-06T05:53:34;13.90;99.90
2663;DHT22;49701;48.072;7.800;2023-08-06T05:56:00;13.90;99.90
2663;DHT22;49701;48.072;7.800;2023-08-06T05:58:25;13.90;99.90
2663;DHT22;49701;48.072;7.800;2023-08-06T06:00:54;13.90;99.90
2663;DHT22;49701;48.072;7.800;2023-08-06T06:03:19;13.90;99.90
2663;DHT22;49701;48.072;7.800;2023-08-06T06:05:45;13.90;99.90
2663;DHT22;49701;48.072;7.800;2023-08-06T06:08:10;14.00;99.90
2663;DHT22;49701;48.072;7.800;2023-08-06T06:10:36;14.00;99.90
2663;DHT22;49701;48.072;7.800;2023-08-06T06:13:02;14.10;99.90
2663;DHT22;49701;48.072;7.800;2023-08-06T06:15:27;14.10;99.90
2663;DHT22;49701;48.072;7.800;2023-08-06T06:17:53;14.10;99.90
2663;DHT22;49701;48.072;7.800;2023-08-06T06:20:18;14.10;99.90
2663;DHT22;49701;48.072;7.800;2023-08-06T06:22:44;14.10;99.90
2663;DHT22;49701;48.072;7.800;2023-08-06T06:25:09;14.00;99.90
2663;DHT22;49701;48.072;7.800;2023-08-06T06:27:35;13.90;99.90
2663;DHT22;49701;48.072;7.800;2023-08-06T06:30:01;13.80;99.90
2663;DHT22;49701;48.072;7.800;2023-08-06T06:32:26;13.80;99.90
2663;DHT22;49701;48.072;7.800;2023-08-06T06:34:52;13.80;99.90
2663;DHT22;49701;48.072;7.800;2023-08-06T06:37:17;13.80;99.90
2663;DHT22;49701;48.072;7.800;2023-08-06T06:39:43;13.90;99.90
2663;DHT22;49701;48.072;7.800;2023-08-06T06:42:09;13.80;99.90
2663;DHT22;49701;48.072;7.800;2023-08-06T06:44:41;13.90;99.90
2663;DHT22;49701;48.072;7.800;2023-08-06T06:47:07;13.80;99.90
2663;DHT22;49701;48.072;7.800;2023-08-06T06:49:32;13.80;99.90
2663;DHT22;49701;48.072;7.800;2023-08-06T06:51:58;13.80;99.90
2663;DHT22;49701;48.072;7.800;2023-08-06T06:54:25;13.80;99.90
2663;DHT22;49701;48.072;7.800;2023-08-06T06:56:50;13.80;99.90
2663;DHT22;49701;48.072;7.800;2023-08-06T06:59:16;13.80;99.90
2663;DHT22;49701;48.072;7.800;2023-08-06T07:01:41;13.80;99.90
2663;DHT22;49701;48.072;7.800;2023-08-06T07:04:07;13.80;99.90
2663;DHT22;49701;48.072;7.800;2023-08-06T07:06:32;13.80;99.90
2663;DHT22;49701;48.072;7.800;2023-08-06T07:08:58;13.80;99.90
2663;DHT22;49701;48.072;7.800;2023-08-06T07:11:24;13.90;99.90
2663;DHT22;49701;48.072;7.800;2023-08-06T07:13:49;13.90;99.90
2663;DHT22;49701;48.072;7.800;2023-08-06T07:16:15;13.90;99.90
2663;DHT22;49701;48.072;7.800;2023-08-06T07:18:40;13.90;99.90
2663;DHT22;49701;48.072;7.800;2023-08-06T07:21:06;14.00;99.90
2663;DHT22;49701;48.072;7.800;2023-08-06T07:23:32;14.00;99.90
2663;DHT22;49701;48.072;7.800;2023-08-06T07:25:57;14.00;99.90
2663;DHT22;49701;48.072;7.800;2023-08-06T07:28:23;14.00;99.90
2663;DHT22;49701;48.072;7.800;2023-08-06T07:30:48;14.00;99.90
2663;DHT22;49701;48.072;7.800;2023-08-06T07:33:14;14.10;99.90
2663;DHT22;49701;48.072;7.800;2023-08-06T07:35:40;14.10;99.90
2663;DHT22;49701;48.072;7.800;2023-08-06T07:38:05;14.10;99.90
2663;DHT22;49701;48.072;7.800;2023-08-06T07:40:31;14.10;99.90
2663;DHT22;49701;48.072;7.800;2023-08-06T07:42:57;14.10;99.90
2663;DHT22;49701;48.072;7.800;2023-08-06T07:45:23;14.20;99.90
2663;DHT22;49701;48.072;7.800;2023-08-06T07:47:49;14.30;99.90
2663;DHT22;49701;48.072;7.800;2023-08-06T07:50:15;14.30;99.90
2663;DHT22;49701;48.072;7.800;2023-08-06T07:52:40;14.30;99.90
2663;DHT22;49701;48.072;7.800;2023-08-06T07:55:06;14.30;99.90
2663;DHT22;49701;48.072;7.800;2023-08-06T07:57:32;14.30;99.90
2663;DHT22;49701;48.072;7.800;2023-08-06T07:59:59;14.30;99.90
2663;DHT22;49701;48.072;7.800;2023-08-06T08:02:25;14.40;99.90
2663;DHT22;49701;48.072;7.800;2023-08-06T08:04:51;14.40;99.90
2663;DHT22;49701;48.072;7.800;2023-08-06T08:07:17;14.40;99.90
2663;DHT22;49701;48.072;7.800;2023-08-06T08:09:42;14.50;99.90
2663;DHT22;49701;48.072;7.800;2023-08-06T08:12:08;14.50;99.90
2663;DHT22;49701;48.072;7.800;2023-08-06T08:14:34;14.50;99.90
2663;DHT22;49701;48.072;7.800;2023-08-06T08:17:04;14.60;99.90
2663;DHT22;49701;48.072;7.800;2023-08-06T08:19:31;14.60;99.90
2663;DHT22;49701;48.072;7.800;2023-08-06T08:21:57;14.70;99.90
2663;DHT22;49701;48.072;7.800;2023-08-06T08:24:23;14.70;99.90
2663;DHT22;49701;48.072;7.800;2023-08-06T08:26:53;14.70;99.90
2663;DHT22;49701;48.072;7.800;2023-08-06T08:29:22;14.70;99.90
2663;DHT22;49701;48.072;7.800;2023-08-06T08:31:48;14.80;99.90
2663;DHT22;49701;48.072;7.800;2023-08-06T08:34:18;14.70;99.90
2663;DHT22;49701;48.072;7.800;2023-08-06T08:36:44;14.70;99.90
2663;DHT22;49701;48.072;7.800;2023-08-06T08:39:13;14.70;99.90
2663;DHT22;49701;48.072;7.800;2023-08-06T08:41:39;14.70;99.90
2663;DHT22;49701;48.072;7.800;2023-08-06T08:44:10;14.70;99.90
2663;DHT22;49701;48.072;7.800;2023-08-06T08:46:40;14.70;99.90
2663;DHT22;49701;48.072;7.800;2023-08-06T08:49:06;14.70;99.90
2663;DHT22;49701;48.072;7.800;2023-08-06T08:51:33;14.70;99.90
2663;DHT22;49701;48.072;7.800;2023-08-06T08:54:04;14.70;99.90
2663;DHT22;49701;48.072;7.800;2023-08-06T08:56:33;14.70;99.90
2663;DHT22;49701;48.072;7.800;2023-08-06T08:58:59;14.70;99.90
2663;DHT22;49701;48.072;7.800;2023-08-06T09:01:25;14.70;99.90
2663;DHT22;49701;48.072;7.800;2023-08-06T09:03:51;14.70;99.90
2663;DHT22;49701;48.072;7.800;2023-08-06T09:06:20;14.70;99.90
2663;DHT22;49701;48.072;7.800;2023-08-06T09:09:02;14.70;99.90
2663;DHT22;49701;48.072;7.800;2023-08-06T09:11:31;14.70;99.90
2663;DHT22;49701;48.072;7.800;2023-08-06T09:14:07;14.70;99.90
2663;DHT22;49701;48.072;7.800;2023-08-06T09:16:35;14.80;99.90
2663;DHT22;49701;48.072;7.800;2023-08-06T09:19:07;14.90;99.90
2663;DHT22;49701;48.072;7.800;2023-08-06T09:21:36;15.00;99.90
2663;DHT22;49701;48.072;7.800;2023-08-06T09:24:11;15.00;99.90
2663;DHT22;49701;48.072;7.800;2023-08-06T09:26:37;15.10;99.90
2663;DHT22;49701;48.072;7.800;2023-08-06T09:29:07;15.20;99.90
2663;DHT22;49701;48.072;7.800;2023-08-06T09:31:43;15.20;99.90
2663;DHT22;49701;48.072;7.800;2023-08-06T09:34:18;15.20;99.90
2663;DHT22;49701;48.072;7.800;2023-08-06T09:36:49;15.30;99.90
2663;DHT22;49701;48.072;7.800;2023-08-06T09:39:26;15.30;99.90
2663;DHT22;49701;48.072;7.800;2023-08-06T09:41:59;15.30;99.90
2663;DHT22;49701;48.072;7.800;2023-08-06T09:44:26;15.30;99.90
2663;DHT22;49701;48.072;7.800;2023-08-06T09:46:57;15.20;99.90
2663;DHT22;49701;48.072;7.800;2023-08-06T09:49:42;15.20;99.90
2663;DHT22;49701;48.072;7.800;2023-08-06T09:52:11;15.20;99.90
2663;DHT22;49701;48.072;7.800;2023-08-06T09:54:37;15.20;99.90
2663;DHT22;49701;48.072;7.800;2023-08-06T09:57:04;15.10;99.90
2663;DHT22;49701;48.072;7.800;2023-08-06T09:59:32;15.10;99.90
2663;DHT22;49701;48.072;7.800;2023-08-06T10:01:58;15.10;99.90
2663;DHT22;49701;48.072;7.800;2023-08-06T10:04:24;15.10;99.90
2663;DHT22;49701;48.072;7.800;2023-08-06T10:06:50;15.10;99.90
2663;DHT22;49701;48.072;7.800;2023-08-06T10:09:16;15.10;99.90
2663;DHT22;49701;48.072;7.800;2023-08-06T10:11:44;15.10;99.90
2663;DHT22;49701;48.072;7.800;2023-08-06T10:14:47;15.10;99.90
2663;DHT22;49701;48.072;7.800;2023-08-06T10:17:14;15.10;99.90
2663;DHT22;49701;48.072;7.800;2023-08-06T10:19:40;15.10;99.90
2663;DHT22;49701;48.072;7.800;2023-08-06T10:22:13;15.10;99.90
2663;DHT22;49701;48.072;7.800;2023-08-06T10:25:05;15.10;99.90
2663;DHT22;49701;48.072;7.800;2023-08-06T10:27:39;15.10;99.90
2663;DHT22;49701;48.072;7.800;2023-08-06T10:32:55;15.20;99.90
2663;DHT22;49701;48.072;7.800;2023-08-06T10:38:04;15.20;99.90
2663;DHT22;49701;48.072;7.800;2023-08-06T10:40:32;15.20;99.90
2663;DHT22;49701;48.072;7.800;2023-08-06T10:43:01;15.20;99.90
2663;DHT22;49701;48.072;7.800;2023-08-06T10:45:28;15.20;99.90
2663;DHT22;49701;48.072;7.800;2023-08-06T10:47:55;15.20;99.90
2663;DHT22;49701;48.072;7.800;2023-08-06T10:50:24;15.30;99.90
2663;DHT22;49701;48.072;7.800;2023-08-06T10:52:50;15.30;99.90
2663;DHT22;49701;48.072;7.800;2023-08-06T10:55:29;15.30;99.90
2663;DHT22;49701;48.072;7.800;2023-08-06T10:57:55;15.30;99.90
2663;DHT22;49701;48.072;7.800;2023-08-06T11:00:24;15.30;99.90
2663;DHT22;49701;48.072;7.800;2023-08-06T11:02:51;15.30;99.90
2663;DHT22;49701;48.072;7.800;2023-08-06T11:05:17;15.40;99.90
2663;DHT22;49701;48.072;7.800;2023-08-06T11:07:43;15.40;99.90
2663;DHT22;49701;48.072;7.800;2023-08-06T11:10:13;15.50;99.90
2663;DHT22;49701;48.072;7.800;2023-08-06T11:12:38;15.50;99.90
2663;DHT22;49701;48.072;7.800;2023-08-06T11:15:05;15.50;99.90
2663;DHT22;49701;48.072;7.800;2023-08-06T11:17:32;15.50;99.90
2663;DHT22;49701;48.072;7.800;2023-08-06T11:20:03;15.50;99.90
2663;DHT22;49701;48.072;7.800;2023-08-06T11:22:32;15.40;99.90
2663;DHT22;49701;48.072;7.800;2023-08-06T11:24:58;15.50;99.90
2663;DHT22;49701;48.072;7.800;2023-08-06T11:27:27;15.50;99.90
2663;DHT22;49701;48.072;7.800;2023-08-06T11:29:53;15.40;99.90
2663;DHT22;49701;48.072;7.800;2023-08-06T11:32:19;15.50;99.90
2663;DHT22;49701;48.072;7.800;2023-08-06T11:34:45;15.40;99.90
2663;DHT22;49701;48.072;7.800;2023-08-06T11:37:11;15.40;99.90
2663;DHT22;49701;48.072;7.800;2023-08-06T11:39:38;15.40;99.90
2663;DHT22;49701;48.072;7.800;2023-08-06T11:42:05;15.40;99.90
2663;DHT22;49701;48.072;7.800;2023-08-06T11:44:35;15.40;99.90
2663;DHT22;49701;48.072;7.800;2023-08-06T11:47:03;15.40;99.90
2663;DHT22;49701;48.072;7.800;2023-08-06T11:49:46;15.30;99.90
2663;DHT22;49701;48.072;7.800;2023-08-06T11:52:19;15.30;99.90
2663;DHT22;49701;48.072;7.800;2023-08-06T11:55:03;15.40;99.90
2663;DHT22;49701;48.072;7.800;2023-08-06T11:57:32;15.40;99.90
2663;DHT22;49701;48.072;7.800;2023-08-06T12:00:11;15.50;99.90
2663;DHT22;49701;48.072;7.800;2023-08-06T12:02:45;15.60;99.90
2663;DHT22;49701;48.072;7.800;2023-08-06T12:05:15;15.80;99.90
2663;DHT22;49701;48.072;7.800;2023-08-06T12:07:53;16.00;99.90
2663;DHT22;49701;48.072;7.800;2023-08-06T12:10:19;16.40;99.90
2663;DHT22;49701;48.072;7.800;2023-08-06T12:12:46;16.50;99.90
2663;DHT22;49701;48.072;7.800;2023-08-06T12:15:12;16.50;99.90
2663;DHT22;49701;48.072;7.800;2023-08-06T12:17:38;16.30;99.90
2663;DHT22;49701;48.072;7.800;2023-08-06T12:20:06;16.20;99.90
2663;DHT22;49701;48.072;7.800;2023-08-06T12:22:36;16.00;99.90
2663;DHT22;49701;48.072;7.800;2023-08-06T12:25:06;16.00;99.90
2663;DHT22;49701;48.072;7.800;2023-08-06T12:27:35;16.20;99.90
2663;DHT22;49701;48.072;7.800;2023-08-06T12:30:00;16.40;99.90
2663;DHT22;49701;48.072;7.800;2023-08-06T12:32:26;16.50;99.90
2663;DHT22;49701;48.072;7.800;2023-08-06T12:34:52;16.60;99.90
2663;DHT22;49701;48.072;7.800;2023-08-06T12:37:17;16.70;99.90
2663;DHT22;49701;48.072;7.800;2023-08-06T12:39:43;16.90;99.90
2663;DHT22;49701;48.072;7.800;2023-08-06T12:42:09;16.90;99.90
2663;DHT22;49701;48.072;7.800;2023-08-06T12:44:36;16.90;99.90
2663;DHT22;49701;48.072;7.800;2023-08-06T12:47:01;16.90;99.90
2663;DHT22;49701;48.072;7.800;2023-08-06T12:49:27;16.90;99.90
2663;DHT22;49701;48.072;7.800;2023-08-06T12:51:54;16.90;99.90
2663;DHT22;49701;48.072;7.800;2023-08-06T12:54:22;16.90;99.90
2663;DHT22;49701;48.072;7.800;2023-08-06T12:56:48;16.80;99.90
2663;DHT22;49701;48.072;7.800;2023-08-06T12:59:15;17.00;99.90
2663;DHT22;49701;48.072;7.800;2023-08-06T13:01:42;17.40;99.90
2663;DHT22;49701;48.072;7.800;2023-08-06T13:04:08;17.60;99.90
2663;DHT22;49701;48.072;7.800;2023-08-06T13:06:33;17.60;99.90
2663;DHT22;49701;48.072;7.800;2023-08-06T13:09:20;17.60;99.90
2663;DHT22;49701;48.072;7.800;2023-08-06T13:11:46;17.60;99.90
2663;DHT22;49701;48.072;7.800;2023-08-06T13:14:15;17.50;99.90
2663;DHT22;49701;48.072;7.800;2023-08-06T13:16:42;17.50;99.90
2663;DHT22;49701;48.072;7.800;2023-08-06T13:19:09;17.60;99.90
2663;DHT22;49701;48.072;7.800;2023-08-06T13:24:15;17.80;99.90
2663;DHT22;49701;48.072;7.800;2023-08-06T13:26:40;18.00;99.90
2663;DHT22;49701;48.072;7.800;2023-08-06T13:29:06;18.00;99.90
2663;DHT22;49701;48.072;7.800;2023-08-06T13:31:37;18.10;99.90
2663;DHT22;49701;48.072;7.800;2023-08-06T13:34:03;18.10;99.90
2663;DHT22;49701;48.072;7.800;2023-08-06T13:36:28;18.10;99.90
2663;DHT22;49701;48.072;7.800;2023-08-06T13:38:54;18.00;99.90
2663;DHT22;49701;48.072;7.800;2023-08-06T13:41:20;17.90;99.90
2663;DHT22;49701;48.072;7.800;2023-08-06T13:43:46;17.90;99.90
2663;DHT22;49701;48.072;7.800;2023-08-06T13:46:11;17.90;99.90
2663;DHT22;49701;48.072;7.800;2023-08-06T13:48:42;17.90;99.90
2663;DHT22;49701;48.072;7.800;2023-08-06T13:51:07;17.90;99.90
2663;DHT22;49701;48.072;7.800;2023-08-06T13:53:33;18.00;99.90
2663;DHT22;49701;48.072;7.800;2023-08-06T13:55:58;18.00;99.90
2663;DHT22;49701;48.072;7.800;2023-08-06T13:58:24;18.00;99.90
2663;DHT22;49701;48.072;7.800;2023-08-06T14:00:51;17.90;99.90
2663;DHT22;49701;48.072;7.800;2023-08-06T14:03:18;18.00;99.90
2663;DHT22;49701;48.072;7.800;2023-08-06T14:05:44;18.00;99.90
2663;DHT22;49701;48.072;7.800;2023-08-06T14:08:09;18.00;99.90
2663;DHT22;49701;48.072;7.800;2023-08-06T14:10:35;18.10;99.90
2663;DHT22;49701;48.072;7.800;2023-08-06T14:13:01;18.20;99.90
2663;DHT22;49701;48.072;7.800;2023-08-06T14:15:26;18.30;99.90
2663;DHT22;49701;48.072;7.800;2023-08-06T14:17:52;18.20;99.90
2663;DHT22;49701;48.072;7.800;2023-08-06T14:20:17;18.10;99.90
2663;DHT22;49701;48.072;7.800;2023-08-06T14:22:43;17.80;99.90
2663;DHT22;49701;48.072;7.800;2023-08-06T14:25:09;17.50;99.90
2663;DHT22;49701;48.072;7.800;2023-08-06T14:27:35;17.30;99.90
2663;DHT22;49701;48.072;7.800;2023-08-06T14:30:01;17.20;99.90
2663;DHT22;49701;48.072;7.800;2023-08-06T14:32:28;17.20;99.90
2663;DHT22;49701;48.072;7.800;2023-08-06T14:34:54;17.30;99.90
2663;DHT22;49701;48.072;7.800;2023-08-06T14:37:20;17.40;99.90
2663;DHT22;49701;48.072;7.800;2023-08-06T14:39:45;17.70;99.90
2663;DHT22;49701;48.072;7.800;2023-08-06T14:42:11;17.90;99.90
2663;DHT22;49701;48.072;7.800;2023-08-06T14:44:37;18.20;99.90
2663;DHT22;49701;48.072;7.800;2023-08-06T14:47:02;18.50;99.90
2663;DHT22;49701;48.072;7.800;2023-08-06T14:49:28;18.60;99.90
2663;DHT22;49701;48.072;7.800;2023-08-06T14:51:54;18.60;99.90
2663;DHT22;49701;48.072;7.800;2023-08-06T14:54:19;18.50;99.90
2663;DHT22;49701;48.072;7.800;2023-08-06T14:56:45;18.50;99.90
2663;DHT22;49701;48.072;7.800;2023-08-06T14:59:11;18.50;99.90
2663;DHT22;49701;48.072;7.800;2023-08-06T15:01:37;18.40;99.90
2663;DHT22;49701;48.072;7.800;2023-08-06T15:04:02;18.40;99.90
2663;DHT22;49701;48.072;7.800;2023-08-06T15:06:28;18.40;99.90
2663;DHT22;49701;48.072;7.800;2023-08-06T15:08:54;18.40;99.90
2663;DHT22;49701;48.072;7.800;2023-08-06T15:11:23;18.40;99.90
2663;DHT22;49701;48.072;7.800;2023-08-06T15:13:49;18.40;99.90
2663;DHT22;49701;48.072;7.800;2023-08-06T15:16:15;18.30;99.90
2663;DHT22;49701;48.072;7.800;2023-08-06T15:18:40;18.20;99.90
2663;DHT22;49701;48.072;7.800;2023-08-06T15:21:07;18.00;99.90
2663;DHT22;49701;48.072;7.800;2023-08-06T15:23:33;17.90;99.90
2663;DHT22;49701;48.072;7.800;2023-08-06T15:25:58;17.60;99.90
2663;DHT22;49701;48.072;7.800;2023-08-06T15:28:24;17.40;99.90
2663;DHT22;49701;48.072;7.800;2023-08-06T15:30:51;17.20;99.90
2663;DHT22;49701;48.072;7.800;2023-08-06T15:33:20;17.00;99.90
2663;DHT22;49701;48.072;7.800;2023-08-06T15:35:46;17.00;99.90
2663;DHT22;49701;48.072;7.800;2023-08-06T15:38:12;17.00;99.90
2663;DHT22;49701;48.072;7.800;2023-08-06T15:40:37;17.20;99.90
2663;DHT22;49701;48.072;7.800;2023-08-06T15:43:03;17.60;99.90
2663;DHT22;49701;48.072;7.800;2023-08-06T15:45:29;18.00;99.90
2663;DHT22;49701;48.072;7.800;2023-08-06T15:47:55;18.10;99.90
2663;DHT22;49701;48.072;7.800;2023-08-06T15:50:21;18.20;99.90
2663;DHT22;49701;48.072;7.800;2023-08-06T15:52:47;18.40;99.90
2663;DHT22;49701;48.072;7.800;2023-08-06T15:55:13;18.40;99.90
2663;DHT22;49701;48.072;7.800;2023-08-06T15:57:39;18.40;99.90
2663;DHT22;49701;48.072;7.800;2023-08-06T16:00:05;18.30;99.90